East Elmhurst, New York
Current Conditions -  °F | °C
As of 7:51 PM on Friday 28 Nov 2014 (Local Time) from KLGA Reporting Station
Few Clouds Few Clouds  
Wind Chill: 23°   Ceiling: Unl
Heat Index: 31°   Visibility: 10mi
Dew Point: 13°   Wind: 9mph
Humidity: 47%   Direction: 330°NNW
Pressure: 30.26"   Gusts: NA
Location:  40.76°N, 73.87°W
Report Text: KLGA 290051Z 33008KT 10SM FEW250 M01/M11 A3026 RMK AO2 SLP245 T10061106
Loading
Personal Weather Stations






























Interactive Weather Map New forecast layout! Learn more

10-Day Weather Forecast

Advertisements
Track Severe Weather on mobile